createdAt,value
2019-03-15T00:00:33.619Z,95.38
2019-03-15T00:03:22.296Z,95.62
2019-03-15T00:06:11.005Z,95.33
2019-03-15T00:08:59.536Z,96.65
2019-03-15T00:11:47.849Z,96.32
2019-03-15T00:14:38.468Z,96.52
2019-03-15T00:17:26.301Z,95.93
2019-03-15T00:20:14.796Z,97.54
2019-03-15T00:23:03.401Z,97.18
2019-03-15T00:25:55.170Z,97.13
2019-03-15T00:28:42.094Z,97.45
2019-03-15T00:31:30.677Z,97.22
2019-03-15T00:34:18.773Z,97.73
2019-03-15T00:37:06.762Z,97.04
2019-03-15T00:39:55.275Z,96.90
2019-03-15T00:42:43.907Z,97.07
2019-03-15T00:45:31.867Z,97.89
2019-03-15T00:48:20.883Z,97.98
2019-03-15T00:51:09.946Z,97.73
2019-03-15T00:53:58.791Z,97.63
2019-03-15T00:56:46.735Z,97.57
2019-03-15T00:59:35.331Z,98.46
2019-03-15T01:02:23.470Z,99.20
2019-03-15T01:05:12.163Z,98.38
2019-03-15T01:08:01.018Z,97.37
2019-03-15T01:10:49.659Z,97.75
2019-03-15T01:13:38.255Z,97.84
2019-03-15T01:16:27.866Z,99.27
2019-03-15T01:19:16.882Z,99.29
2019-03-15T01:22:05.304Z,98.74
2019-03-15T01:24:53.798Z,98.69
2019-03-15T01:27:42.081Z,98.94
2019-03-15T01:30:29.704Z,98.15
2019-03-15T01:33:18.555Z,99.90
2019-03-15T01:36:07.297Z,99.88
2019-03-15T01:38:56.297Z,100.00
2019-03-15T01:41:44.779Z,99.05
2019-03-15T01:44:33.220Z,96.52
2019-03-15T01:47:21.757Z,96.16
2019-03-15T01:50:10.471Z,94.93
2019-03-15T01:52:58.805Z,93.16
2019-03-15T01:55:46.480Z,93.67
2019-03-15T01:58:34.247Z,93.82
2019-03-15T02:01:22.669Z,91.40
2019-03-15T02:04:10.774Z,90.74
2019-03-15T02:06:59.244Z,90.61
2019-03-15T02:09:47.946Z,89.38
2019-03-15T02:12:36.210Z,88.96
2019-03-15T02:15:24.690Z,86.91
2019-03-15T02:18:13.295Z,86.25
2019-03-15T02:21:01.812Z,86.43
2019-03-15T02:23:50.195Z,86.17
2019-03-15T02:26:38.651Z,85.70
2019-03-15T02:29:27.113Z,85.35
2019-03-15T02:32:15.801Z,84.09
2019-03-15T02:35:04.144Z,84.22
2019-03-15T02:37:52.995Z,84.73
2019-03-15T02:40:41.730Z,84.42
2019-03-15T02:43:29.815Z,82.39
2019-03-15T02:46:18.295Z,80.99
2019-03-15T02:49:06.295Z,81.46
2019-03-15T02:51:54.820Z,81.17
2019-03-15T02:54:43.004Z,81.63
2019-03-15T02:57:31.469Z,82.15
2019-03-15T03:00:19.669Z,81.70
2019-03-15T03:03:08.262Z,82.61
2019-03-15T03:05:56.600Z,82.42
2019-03-15T03:08:44.450Z,81.27
2019-03-15T03:11:32.942Z,81.19
2019-03-15T03:14:21.474Z,80.00
2019-03-15T03:17:09.693Z,80.90
2019-03-15T03:19:58.913Z,81.35
2019-03-15T03:22:47.403Z,82.28
2019-03-15T03:25:36.077Z,81.87
2019-03-15T03:28:24.735Z,83.01
2019-03-15T03:31:15.507Z,83.66
2019-03-15T03:34:01.966Z,83.80
2019-03-15T03:36:50.072Z,84.25
2019-03-15T03:39:38.249Z,85.11
2019-03-15T03:42:27.522Z,86.38
2019-03-15T03:45:15.905Z,86.13
2019-03-15T03:48:04.443Z,85.76
2019-03-15T03:50:52.856Z,85.77
2019-03-15T03:53:41.548Z,84.67
2019-03-15T03:56:29.735Z,84.97
2019-03-15T03:59:20.007Z,86.09
2019-03-15T04:02:08.496Z,86.70
2019-03-15T04:04:56.599Z,87.52
2019-03-15T04:07:45.358Z,88.10
2019-03-15T04:10:34.167Z,88.12
2019-03-15T04:13:21.946Z,87.69
2019-03-15T04:16:09.599Z,89.12
2019-03-15T04:18:58.872Z,89.57
2019-03-15T04:21:46.842Z,89.21
2019-03-15T04:24:34.638Z,89.43
2019-03-15T04:27:23.089Z,90.14
2019-03-15T04:30:11.629Z,90.90
2019-03-15T04:33:00.781Z,91.07
2019-03-15T04:35:48.982Z,91.03
2019-03-15T04:38:37.315Z,90.01
2019-03-15T04:41:25.751Z,89.42
2019-03-15T04:44:13.724Z,89.69
2019-03-15T04:47:02.272Z,90.10
2019-03-15T04:49:50.874Z,90.42
2019-03-15T04:52:38.841Z,89.42
2019-03-15T04:55:26.981Z,88.78
2019-03-15T04:58:15.272Z,88.66
2019-03-15T05:01:03.823Z,88.62
2019-03-15T05:03:52.381Z,88.90
2019-03-15T05:06:40.254Z,89.40
2019-03-15T05:09:28.725Z,89.09
2019-03-15T05:12:17.014Z,89.29
2019-03-15T05:15:05.644Z,89.18
2019-03-15T05:17:54.199Z,89.85
2019-03-15T05:20:42.384Z,90.61
2019-03-15T05:23:32.238Z,90.69
2019-03-15T05:26:20.419Z,89.66
2019-03-15T05:29:08.536Z,88.78
2019-03-15T05:31:56.308Z,88.65
2019-03-15T05:34:44.936Z,87.23
2019-03-15T05:37:33.469Z,86.11
2019-03-15T05:40:24.582Z,84.90
2019-03-15T05:43:13.043Z,84.91
2019-03-15T05:46:01.728Z,83.40
2019-03-15T05:48:54.284Z,83.36
2019-03-15T05:51:43.692Z,81.75
2019-03-15T05:54:31.850Z,83.94
2019-03-15T05:57:20.508Z,82.51
2019-03-15T06:00:09.123Z,82.06
2019-03-15T06:02:57.385Z,82.02
2019-03-15T06:05:45.169Z,81.41
2019-03-15T06:08:34.309Z,80.76
2019-03-15T06:11:22.796Z,80.08
2019-03-15T06:14:11.333Z,81.00
2019-03-15T06:16:59.814Z,80.11
2019-03-15T06:19:48.391Z,80.53
2019-03-15T06:22:37.001Z,80.83
2019-03-15T06:25:25.084Z,80.90
2019-03-15T06:28:13.607Z,80.77
2019-03-15T06:31:03.291Z,79.29
2019-03-15T06:33:51.580Z,80.89
2019-03-15T06:36:40.486Z,80.74
2019-03-15T06:39:29.113Z,79.48
2019-03-15T06:42:17.591Z,79.80
2019-03-15T06:45:06.707Z,75.41
2019-03-15T06:47:55.052Z,76.51
2019-03-15T06:50:43.587Z,76.18
2019-03-15T06:53:31.880Z,75.50
2019-03-15T06:56:20.092Z,77.01
2019-03-15T06:59:08.616Z,77.35
2019-03-15T07:01:56.924Z,78.13
2019-03-15T07:04:45.056Z,79.02
2019-03-15T07:07:33.599Z,82.04
2019-03-15T07:10:21.812Z,82.62
2019-03-15T07:13:10.592Z,80.32
2019-03-15T07:15:59.533Z,81.49
2019-03-15T07:18:47.647Z,81.65
2019-03-15T07:21:37.005Z,82.42
2019-03-15T07:24:25.841Z,82.19
2019-03-15T07:27:14.563Z,82.22
2019-03-15T07:30:03.201Z,83.34
2019-03-15T07:32:51.388Z,82.75
2019-03-15T07:35:39.876Z,82.69
2019-03-15T07:38:28.948Z,81.48
2019-03-15T07:41:17.609Z,81.26
2019-03-15T07:44:05.284Z,80.00
2019-03-15T07:46:53.076Z,79.55
2019-03-15T07:49:41.111Z,79.00
2019-03-15T07:52:29.625Z,76.57
2019-03-15T07:55:18.226Z,76.81
2019-03-15T07:58:07.470Z,77.21
2019-03-15T08:00:55.995Z,77.03
2019-03-15T08:03:44.441Z,75.17
2019-03-15T08:06:35.107Z,73.72
2019-03-15T08:09:22.524Z,71.72
2019-03-15T08:12:11.070Z,69.21
2019-03-15T08:14:59.530Z,69.55
2019-03-15T08:17:47.679Z,68.64
2019-03-15T08:20:36.750Z,66.11
2019-03-15T08:23:24.577Z,64.76
2019-03-15T08:26:12.977Z,63.53
2019-03-15T08:29:00.738Z,61.78
2019-03-15T08:31:48.600Z,61.37
2019-03-15T08:34:37.037Z,60.30
2019-03-15T08:37:25.447Z,59.84
2019-03-15T08:40:13.676Z,61.72
2019-03-15T08:43:02.508Z,59.87
2019-03-15T08:45:51.038Z,57.33
2019-03-15T08:48:39.212Z,58.47
2019-03-15T08:51:26.960Z,56.64
2019-03-15T08:54:15.126Z,56.27
2019-03-15T08:57:03.472Z,56.44
2019-03-15T08:59:56.988Z,55.14
2019-03-15T09:02:41.439Z,53.10
2019-03-15T09:05:29.673Z,53.20
2019-03-15T09:08:17.814Z,55.47
2019-03-15T09:10:47.638Z,54.29
2019-03-15T09:13:17.868Z,53.16
2019-03-15T09:15:48.809Z,54.08
2019-03-15T09:18:18.729Z,53.80
2019-03-15T09:20:48.576Z,53.43
2019-03-15T09:23:18.510Z,52.87
2019-03-15T09:25:48.334Z,49.43
2019-03-15T09:28:18.164Z,49.30
2019-03-15T09:30:48.460Z,49.78
2019-03-15T09:33:19.402Z,50.22
2019-03-15T09:35:49.229Z,50.82
2019-03-15T09:38:19.337Z,49.54
2019-03-15T09:40:49.363Z,50.93
2019-03-15T09:43:19.191Z,49.56
2019-03-15T09:45:49.115Z,50.27
2019-03-15T09:48:18.964Z,49.22
2019-03-15T09:50:51.580Z,48.48
2019-03-15T09:53:20.343Z,49.15
2019-03-15T09:55:50.540Z,48.97
2019-03-15T09:58:20.360Z,48.11
2019-03-15T10:00:50.295Z,47.02
2019-03-15T10:03:22.426Z,47.99
2019-03-15T10:05:51.569Z,46.54
2019-03-15T10:08:26.396Z,49.17
2019-03-15T10:10:53.384Z,47.01
2019-03-15T10:13:23.200Z,47.29
2019-03-15T10:15:55.559Z,45.55
2019-03-15T10:18:24.552Z,45.16
2019-03-15T10:20:54.367Z,44.94
2019-03-15T10:23:24.591Z,43.14
2019-03-15T10:25:54.415Z,44.47
2019-03-15T10:28:24.682Z,41.53
2019-03-15T10:30:54.702Z,43.84
2019-03-15T10:33:24.676Z,44.02
2019-03-15T10:35:54.527Z,42.75
2019-03-15T10:38:24.376Z,41.19
2019-03-15T10:40:54.203Z,41.33
2019-03-15T10:43:24.055Z,41.16
2019-03-15T10:45:53.975Z,42.70
2019-03-15T10:48:25.425Z,41.86
2019-03-15T10:50:55.675Z,39.89
2019-03-15T10:53:25.542Z,41.30
2019-03-15T10:56:00.482Z,40.86
2019-03-15T10:58:29.817Z,43.37
2019-03-15T11:00:59.850Z,43.06
2019-03-15T11:03:29.668Z,43.39
2019-03-15T11:05:59.874Z,42.62
2019-03-15T11:08:29.743Z,41.12
2019-03-15T11:11:00.330Z,41.03
2019-03-15T11:13:30.151Z,42.17
2019-03-15T11:16:00.046Z,42.95
2019-03-15T11:18:29.856Z,44.15
2019-03-15T11:20:59.678Z,44.42
2019-03-15T11:23:29.616Z,45.48
2019-03-15T11:26:12.669Z,43.92
2019-03-15T11:28:30.891Z,45.67
2019-03-15T11:31:00.919Z,44.24
2019-03-15T11:33:30.787Z,45.16
2019-03-15T11:36:01.019Z,45.33
2019-03-15T11:38:31.435Z,44.46
2019-03-15T11:41:01.788Z,44.15
2019-03-15T11:43:31.624Z,43.39
2019-03-15T11:46:01.880Z,41.37
2019-03-15T11:48:32.161Z,44.68
2019-03-15T11:51:01.981Z,44.09
2019-03-15T11:53:32.288Z,44.03
2019-03-15T11:56:02.520Z,44.16
2019-03-15T11:58:32.348Z,43.59
2019-03-15T12:01:05.324Z,43.56
2019-03-15T12:03:35.179Z,44.71
2019-03-15T12:06:05.025Z,44.02
2019-03-15T12:08:35.326Z,43.71
2019-03-15T12:11:05.256Z,43.70
2019-03-15T12:13:35.261Z,43.17
2019-03-15T12:16:05.132Z,43.57
2019-03-15T12:18:34.971Z,42.46
2019-03-15T12:21:04.816Z,41.22
2019-03-15T12:23:34.685Z,41.65
2019-03-15T12:26:04.534Z,40.74
2019-03-15T12:28:34.358Z,40.52
2019-03-15T12:31:04.707Z,39.95
2019-03-15T12:33:34.652Z,39.95
2019-03-15T12:36:04.506Z,39.65
2019-03-15T12:38:34.397Z,39.31
2019-03-15T12:41:04.293Z,40.11
2019-03-15T12:43:34.552Z,38.67
2019-03-15T12:46:04.830Z,38.94
2019-03-15T12:48:34.665Z,38.74
2019-03-15T12:51:05.068Z,38.06
2019-03-15T12:53:34.953Z,38.34
2019-03-15T12:56:05.510Z,38.31
2019-03-15T12:58:35.347Z,37.66
2019-03-15T13:01:05.615Z,36.46
2019-03-15T13:03:35.443Z,37.11
2019-03-15T13:06:05.290Z,37.21
2019-03-15T13:08:35.696Z,37.52
2019-03-15T13:11:05.532Z,38.20
2019-03-15T13:13:35.366Z,37.35
2019-03-15T13:16:05.711Z,37.76
2019-03-15T13:18:35.557Z,37.42
2019-03-15T13:21:05.409Z,36.98
2019-03-15T13:23:35.277Z,36.42
2019-03-15T13:26:05.202Z,36.49
2019-03-15T13:28:35.389Z,36.26
2019-03-15T13:31:05.317Z,36.58
2019-03-15T13:33:35.491Z,37.28
2019-03-15T13:36:05.515Z,37.11
2019-03-15T13:38:35.371Z,35.98
2019-03-15T13:41:23.709Z,35.82
2019-03-15T13:44:11.977Z,35.42
2019-03-15T13:47:01.621Z,34.20
2019-03-15T13:49:50.988Z,33.27
2019-03-15T13:52:40.711Z,31.87
2019-03-15T13:55:30.659Z,30.53
2019-03-15T13:58:20.224Z,30.49
2019-03-15T14:01:09.728Z,29.00
2019-03-15T14:03:59.433Z,27.67
2019-03-15T14:06:49.281Z,28.08
2019-03-15T14:09:38.652Z,27.25
2019-03-15T14:12:27.663Z,26.97
2019-03-15T14:15:17.313Z,27.23
2019-03-15T14:18:07.205Z,28.12
2019-03-15T14:20:56.604Z,28.25
2019-03-15T14:23:46.165Z,27.72
2019-03-15T14:26:35.577Z,28.22
2019-03-15T14:29:25.024Z,29.09
2019-03-15T14:32:14.042Z,28.19
2019-03-15T14:35:03.607Z,28.72
2019-03-15T14:37:53.215Z,28.64
2019-03-15T14:40:24.663Z,27.93
2019-03-15T14:42:58.753Z,28.69
2019-03-15T14:45:29.750Z,28.50
2019-03-15T14:48:00.777Z,28.65
2019-03-15T14:50:32.117Z,29.08
2019-03-15T14:53:03.122Z,31.31
2019-03-15T14:55:34.210Z,31.25
2019-03-15T14:58:04.591Z,32.56
2019-03-15T15:00:34.521Z,33.26
2019-03-15T15:03:04.489Z,34.79
2019-03-15T15:05:34.313Z,36.03
2019-03-15T15:08:04.152Z,36.25
2019-03-15T15:10:34.521Z,36.62
2019-03-15T15:13:04.700Z,37.17
2019-03-15T15:15:34.627Z,38.06
2019-03-15T15:18:04.568Z,37.85
2019-03-15T15:20:37.640Z,38.43
2019-03-15T15:23:07.464Z,38.79
2019-03-15T15:25:37.706Z,39.01
2019-03-15T15:28:07.648Z,39.10
2019-03-15T15:30:37.473Z,39.78
2019-03-15T15:33:07.396Z,39.94
2019-03-15T15:35:37.400Z,40.56
2019-03-15T15:38:07.798Z,40.84
2019-03-15T15:40:38.293Z,41.02
2019-03-15T15:43:08.976Z,41.10
2019-03-15T15:45:38.843Z,40.63
2019-03-15T15:48:09.010Z,41.27
2019-03-15T15:50:39.335Z,41.80
2019-03-15T15:53:11.110Z,41.67
2019-03-15T15:55:40.696Z,41.87
2019-03-15T15:58:17.878Z,41.78
2019-03-15T16:00:42.160Z,41.96
2019-03-15T16:03:12.037Z,42.05
2019-03-15T16:05:41.875Z,41.61
2019-03-15T16:08:11.902Z,42.23
2019-03-15T16:10:42.356Z,42.65
2019-03-15T16:13:17.183Z,43.05
2019-03-15T16:15:44.145Z,43.53
2019-03-15T16:18:14.421Z,43.37
2019-03-15T16:20:44.247Z,43.45
2019-03-15T16:23:14.189Z,43.49
2019-03-15T16:25:46.594Z,43.88
2019-03-15T16:28:16.421Z,44.11
2019-03-15T16:30:46.309Z,43.83
2019-03-15T16:33:16.179Z,43.59
2019-03-15T16:35:46.167Z,44.02
2019-03-15T16:38:16.519Z,44.88
2019-03-15T16:40:46.337Z,44.85
2019-03-15T16:43:16.206Z,44.66
2019-03-15T16:45:46.934Z,45.36
2019-03-15T16:48:16.776Z,45.47
2019-03-15T16:50:47.042Z,46.12
2019-03-15T16:53:16.980Z,46.33
2019-03-15T16:55:46.883Z,46.52
2019-03-15T16:58:17.062Z,46.80
2019-03-15T17:00:46.937Z,46.63
2019-03-15T17:03:16.784Z,46.86
2019-03-15T17:05:46.663Z,47.12
2019-03-15T17:08:16.556Z,47.52
2019-03-15T17:10:46.487Z,47.55
2019-03-15T17:13:16.310Z,47.80
2019-03-15T17:15:46.319Z,48.65
2019-03-15T17:18:17.102Z,48.85
2019-03-15T17:20:46.899Z,49.29
2019-03-15T17:23:16.822Z,49.86
2019-03-15T17:25:46.763Z,50.37
2019-03-15T17:28:16.582Z,50.69
2019-03-15T17:30:48.190Z,50.93
2019-03-15T17:33:20.389Z,51.83
2019-03-15T17:35:50.336Z,51.45
2019-03-15T17:38:20.222Z,51.87
2019-03-15T17:40:50.054Z,52.07
2019-03-15T17:43:19.879Z,52.05
2019-03-15T17:45:50.265Z,52.29
2019-03-15T17:48:20.179Z,52.79
2019-03-15T17:50:50.023Z,53.06
2019-03-15T17:53:19.888Z,52.79
2019-03-15T17:56:08.073Z,53.34
2019-03-15T17:58:38.101Z,53.48
2019-03-15T18:01:08.438Z,54.59
2019-03-15T18:03:40.228Z,55.61
2019-03-15T18:06:10.664Z,55.47
2019-03-15T18:08:40.525Z,56.14
2019-03-15T18:11:11.078Z,53.58
2019-03-15T18:13:40.982Z,53.07
2019-03-15T18:16:10.887Z,52.52
2019-03-15T18:18:40.761Z,52.13
2019-03-15T18:21:11.137Z,51.58
2019-03-15T18:23:43.305Z,51.46
2019-03-15T18:26:13.213Z,50.99
2019-03-15T18:28:43.084Z,49.82
2019-03-15T18:31:12.908Z,49.16
2019-03-15T18:33:42.804Z,49.17
2019-03-15T18:36:14.268Z,48.62
2019-03-15T18:38:44.113Z,48.45
2019-03-15T18:41:15.127Z,48.03
2019-03-15T18:43:45.067Z,48.26
2019-03-15T18:46:14.886Z,48.56
2019-03-15T18:48:44.737Z,48.28
2019-03-15T18:51:15.031Z,48.32
2019-03-15T18:53:45.769Z,48.22
2019-03-15T18:56:16.419Z,48.49
2019-03-15T18:58:46.417Z,49.02
2019-03-15T19:01:17.471Z,48.84
2019-03-15T19:03:47.341Z,49.11
2019-03-15T19:06:17.423Z,49.56
2019-03-15T19:08:47.263Z,49.69
2019-03-15T19:11:17.113Z,50.07
2019-03-15T19:13:47.066Z,50.49
2019-03-15T19:16:20.339Z,51.44
2019-03-15T19:18:49.240Z,52.03
2019-03-15T19:21:19.192Z,52.37
2019-03-15T19:23:49.507Z,52.80
2019-03-15T19:26:19.349Z,53.17
2019-03-15T19:28:50.779Z,53.92
2019-03-15T19:31:20.643Z,54.68
2019-03-15T19:33:50.890Z,54.94
2019-03-15T19:36:21.165Z,55.34
2019-03-15T19:38:51.004Z,56.04
2019-03-15T19:41:21.398Z,56.32
2019-03-15T19:43:51.280Z,57.41
2019-03-15T19:46:21.941Z,56.68
2019-03-15T19:48:52.245Z,56.99
2019-03-15T19:51:24.046Z,58.11
2019-03-15T19:53:54.796Z,56.55
2019-03-15T19:56:24.781Z,55.42
2019-03-15T19:58:55.465Z,56.08
2019-03-15T20:01:31.047Z,55.86
2019-03-15T20:04:02.801Z,55.87
2019-03-15T20:06:35.420Z,55.68
2019-03-15T20:09:06.884Z,55.66
2019-03-15T20:11:40.002Z,56.94
2019-03-15T20:14:10.256Z,57.08
2019-03-15T20:16:41.251Z,56.10
2019-03-15T20:19:16.277Z,55.42
2019-03-15T20:21:47.994Z,55.62
2019-03-15T20:24:18.181Z,56.61
2019-03-15T20:26:48.842Z,56.01
2019-03-15T20:29:22.451Z,55.51
2019-03-15T20:31:55.638Z,55.95
2019-03-15T20:34:25.787Z,56.15
2019-03-15T20:36:56.161Z,56.47
2019-03-15T20:39:29.730Z,56.82
2019-03-15T20:42:01.739Z,56.70
2019-03-15T20:44:32.184Z,56.65
2019-03-15T20:47:03.127Z,56.99
2019-03-15T20:49:37.464Z,57.47
2019-03-15T20:52:13.886Z,57.87
2019-03-15T20:54:46.854Z,58.63
2019-03-15T20:57:24.757Z,59.39
2019-03-15T21:00:18.041Z,59.68
2019-03-15T21:03:06.440Z,60.57
2019-03-15T21:05:54.524Z,61.49
2019-03-15T21:08:47.211Z,62.78
2019-03-15T21:11:34.795Z,63.43
2019-03-15T21:14:23.026Z,63.34
2019-03-15T21:17:12.145Z,63.30
2019-03-15T21:20:00.380Z,62.48
2019-03-15T21:22:48.954Z,62.20
2019-03-15T21:25:37.039Z,62.37
2019-03-15T21:28:25.669Z,63.07
2019-03-15T21:31:17.614Z,63.50
2019-03-15T21:34:06.476Z,63.90
2019-03-15T21:36:58.786Z,64.94
2019-03-15T21:39:46.774Z,65.57
2019-03-15T21:42:35.086Z,65.79
2019-03-15T21:45:23.615Z,67.69
2019-03-15T21:48:11.705Z,67.24
2019-03-15T21:50:59.811Z,67.40
2019-03-15T21:53:47.711Z,67.67
2019-03-15T21:56:36.084Z,67.86
2019-03-15T21:59:24.482Z,67.87
2019-03-15T22:02:12.940Z,68.07
2019-03-15T22:05:01.409Z,67.70
2019-03-15T22:07:50.644Z,68.35
2019-03-15T22:10:39.078Z,68.88
2019-03-15T22:13:27.285Z,69.34
2019-03-15T22:16:14.884Z,70.18
2019-03-15T22:19:03.275Z,70.31
2019-03-15T22:21:51.165Z,70.36
2019-03-15T22:24:40.084Z,70.17
2019-03-15T22:27:28.249Z,69.69
2019-03-15T22:30:16.973Z,71.26
2019-03-15T22:33:05.577Z,71.75
2019-03-15T22:35:53.811Z,71.17
2019-03-15T22:38:41.649Z,71.52
2019-03-15T22:41:30.226Z,71.09
2019-03-15T22:44:19.175Z,71.12
2019-03-15T22:47:07.712Z,71.09
2019-03-15T22:49:56.237Z,72.10
2019-03-15T22:52:44.368Z,73.69
2019-03-15T22:55:32.939Z,73.60
2019-03-15T22:58:21.139Z,75.63
2019-03-15T23:01:09.796Z,74.30
2019-03-15T23:03:57.948Z,74.47
2019-03-15T23:06:46.284Z,74.37
2019-03-15T23:09:34.499Z,74.61
2019-03-15T23:12:23.034Z,73.83
2019-03-15T23:15:11.565Z,74.03
2019-03-15T23:18:00.024Z,74.08
2019-03-15T23:20:47.972Z,74.05
2019-03-15T23:23:36.176Z,74.04
2019-03-15T23:26:23.728Z,74.32
2019-03-15T23:29:12.579Z,74.75
2019-03-15T23:32:00.984Z,75.98
2019-03-15T23:34:49.991Z,75.55
2019-03-15T23:37:38.488Z,78.16
2019-03-15T23:40:26.284Z,77.41
2019-03-15T23:43:14.537Z,77.86
2019-03-15T23:46:02.618Z,77.34
2019-03-15T23:48:50.784Z,77.64
2019-03-15T23:51:39.281Z,77.13
2019-03-15T23:54:27.811Z,77.88
2019-03-15T23:57:16.354Z,77.52
